sensor_id;sensor_type;location;lat;lon;timestamp;pressure;altitude;pressure_sealevel;temperature;humidity
79617;BME280;69097;52.132;5.422;2023-06-26T00:00:49;101287.25;;;22.71;67.20
79617;BME280;69097;52.132;5.422;2023-06-26T00:03:16;101287.78;;;22.69;66.84
79617;BME280;69097;52.132;5.422;2023-06-26T00:05:43;101290.84;;;22.66;67.08
79617;BME280;69097;52.132;5.422;2023-06-26T00:08:09;101282.00;;;22.64;67.14
79617;BME280;69097;52.132;5.422;2023-06-26T00:10:36;101276.53;;;22.60;67.85
79617;BME280;69097;52.132;5.422;2023-06-26T00:13:02;101281.44;;;22.60;66.72
79617;BME280;69097;52.132;5.422;2023-06-26T00:15:29;101292.03;;;22.54;68.34
79617;BME280;69097;52.132;5.422;2023-06-26T00:17:58;101275.31;;;22.47;68.69
79617;BME280;69097;52.132;5.422;2023-06-26T00:20:25;101284.88;;;22.44;68.34
79617;BME280;69097;52.132;5.422;2023-06-26T00:22:51;101284.63;;;22.42;68.45
79617;BME280;69097;52.132;5.422;2023-06-26T00:25:21;101281.19;;;22.38;68.77
79617;BME280;69097;52.132;5.422;2023-06-26T00:27:47;101282.00;;;22.38;68.88
79617;BME280;69097;52.132;5.422;2023-06-26T00:30:14;101275.50;;;22.38;69.71
79617;BME280;69097;52.132;5.422;2023-06-26T00:32:40;101270.00;;;22.34;69.76
79617;BME280;69097;52.132;5.422;2023-06-26T00:35:07;101266.56;;;22.30;70.06
79617;BME280;69097;52.132;5.422;2023-06-26T00:37:34;101256.13;;;22.27;70.33
79617;BME280;69097;52.132;5.422;2023-06-26T00:40:00;101254.06;;;22.28;69.71
79617;BME280;69097;52.132;5.422;2023-06-26T00:42:28;101257.72;;;22.28;69.71
79617;BME280;69097;52.132;5.422;2023-06-26T00:44:55;101254.38;;;22.30;69.03
79617;BME280;69097;52.132;5.422;2023-06-26T00:47:21;101258.25;;;22.27;69.43
79617;BME280;69097;52.132;5.422;2023-06-26T00:49:48;101255.84;;;22.25;69.34
79617;BME280;69097;52.132;5.422;2023-06-26T00:52:14;101258.72;;;22.25;69.10
79617;BME280;69097;52.132;5.422;2023-06-26T00:54:43;101254.88;;;22.28;68.71
79617;BME280;69097;52.132;5.422;2023-06-26T00:57:10;101254.06;;;22.28;68.29
79617;BME280;69097;52.132;5.422;2023-06-26T00:59:36;101253.00;;;22.25;68.14
79617;BME280;69097;52.132;5.422;2023-06-26T01:02:03;101255.59;;;22.23;67.44
79617;BME280;69097;52.132;5.422;2023-06-26T01:04:31;101262.06;;;22.24;67.49
79617;BME280;69097;52.132;5.422;2023-06-26T01:07:01;101251.94;;;22.23;67.97
79617;BME280;69097;52.132;5.422;2023-06-26T01:09:29;101262.31;;;22.20;67.12
79617;BME280;69097;52.132;5.422;2023-06-26T01:11:56;101261.69;;;22.11;66.48
79617;BME280;69097;52.132;5.422;2023-06-26T01:14:23;101273.41;;;22.13;66.13
79617;BME280;69097;52.132;5.422;2023-06-26T01:16:50;101278.41;;;22.18;65.92
79617;BME280;69097;52.132;5.422;2023-06-26T01:19:27;101270.41;;;22.22;65.33
79617;BME280;69097;52.132;5.422;2023-06-26T01:22:31;101273.56;;;22.29;66.06
79617;BME280;69097;52.132;5.422;2023-06-26T01:27:30;101278.34;;;22.38;65.09
79617;BME280;69097;52.132;5.422;2023-06-26T01:30:01;101287.75;;;22.44;63.97
79617;BME280;69097;52.132;5.422;2023-06-26T01:32:30;101296.91;;;22.48;63.88
79617;BME280;69097;52.132;5.422;2023-06-26T01:34:58;101307.94;;;22.55;63.80
79617;BME280;69097;52.132;5.422;2023-06-26T01:37:25;101300.41;;;22.57;63.66
79617;BME280;69097;52.132;5.422;2023-06-26T01:39:52;101308.47;;;22.59;63.77
79617;BME280;69097;52.132;5.422;2023-06-26T01:42:18;101301.19;;;22.58;63.43
79617;BME280;69097;52.132;5.422;2023-06-26T01:44:46;101306.09;;;22.57;63.33
79617;BME280;69097;52.132;5.422;2023-06-26T01:47:16;101302.19;;;22.55;63.35
79617;BME280;69097;52.132;5.422;2023-06-26T01:49:54;101309.19;;;22.54;62.91
79617;BME280;69097;52.132;5.422;2023-06-26T01:52:40;101305.84;;;22.55;62.66
79617;BME280;69097;52.132;5.422;2023-06-26T01:55:32;101300.91;;;22.56;62.81
79617;BME280;69097;52.132;5.422;2023-06-26T01:58:03;101307.13;;;22.54;62.83
79617;BME280;69097;52.132;5.422;2023-06-26T02:00:30;101313.03;;;22.51;62.53
79617;BME280;69097;52.132;5.422;2023-06-26T02:02:57;101308.34;;;22.48;63.47
79617;BME280;69097;52.132;5.422;2023-06-26T02:05:24;101304.91;;;22.44;62.65
79617;BME280;69097;52.132;5.422;2023-06-26T02:07:51;101311.13;;;22.42;62.56
79617;BME280;69097;52.132;5.422;2023-06-26T02:10:17;101305.91;;;22.41;62.41
79617;BME280;69097;52.132;5.422;2023-06-26T02:12:44;101308.25;;;22.37;63.02
79617;BME280;69097;52.132;5.422;2023-06-26T02:15:11;101315.94;;;22.31;62.90
79617;BME280;69097;52.132;5.422;2023-06-26T02:17:38;101309.19;;;22.28;62.80
79617;BME280;69097;52.132;5.422;2023-06-26T02:20:04;101309.91;;;22.23;63.48
79617;BME280;69097;52.132;5.422;2023-06-26T02:22:32;101319.41;;;22.15;63.54
79617;BME280;69097;52.132;5.422;2023-06-26T02:24:58;101315.19;;;22.10;63.64
79617;BME280;69097;52.132;5.422;2023-06-26T02:27:25;101317.78;;;22.08;63.78
79617;BME280;69097;52.132;5.422;2023-06-26T02:29:51;101313.56;;;22.04;64.03
79617;BME280;69097;52.132;5.422;2023-06-26T02:32:18;101311.22;;;22.02;63.90
79617;BME280;69097;52.132;5.422;2023-06-26T02:34:45;101324.66;;;21.96;63.74
79617;BME280;69097;52.132;5.422;2023-06-26T02:37:11;101320.41;;;21.91;64.09
79617;BME280;69097;52.132;5.422;2023-06-26T02:39:38;101318.28;;;21.86;64.31
79617;BME280;69097;52.132;5.422;2023-06-26T02:42:05;101329.66;;;21.81;64.51
79617;BME280;69097;52.132;5.422;2023-06-26T02:44:31;101325.91;;;21.75;65.21
79617;BME280;69097;52.132;5.422;2023-06-26T02:46:58;101321.69;;;21.70;65.17
79617;BME280;69097;52.132;5.422;2023-06-26T02:49:24;101322.94;;;21.69;65.93
79617;BME280;69097;52.132;5.422;2023-06-26T02:51:51;101325.34;;;21.71;65.70
79617;BME280;69097;52.132;5.422;2023-06-26T02:54:17;101327.09;;;21.68;65.91
79617;BME280;69097;52.132;5.422;2023-06-26T02:56:44;101329.97;;;21.68;66.14
79617;BME280;69097;52.132;5.422;2023-06-26T02:59:13;101339.53;;;21.65;65.83
79617;BME280;69097;52.132;5.422;2023-06-26T03:01:40;101346.25;;;21.62;65.70
79617;BME280;69097;52.132;5.422;2023-06-26T03:04:07;101343.00;;;21.55;66.25
79617;BME280;69097;52.132;5.422;2023-06-26T03:06:34;101330.03;;;21.54;66.68
79617;BME280;69097;52.132;5.422;2023-06-26T03:09:01;101338.09;;;21.55;66.37
79617;BME280;69097;52.132;5.422;2023-06-26T03:11:28;101338.59;;;21.54;66.74
79617;BME280;69097;52.132;5.422;2023-06-26T03:13:55;101343.91;;;21.46;66.63
79617;BME280;69097;52.132;5.422;2023-06-26T03:16:21;101346.47;;;21.44;67.24
79617;BME280;69097;52.132;5.422;2023-06-26T03:18:48;101345.72;;;21.44;66.97
79617;BME280;69097;52.132;5.422;2023-06-26T03:21:14;101346.69;;;21.41;67.02
79617;BME280;69097;52.132;5.422;2023-06-26T03:23:41;101351.03;;;21.36;67.77
79617;BME280;69097;52.132;5.422;2023-06-26T03:26:07;101349.19;;;21.33;67.50
79617;BME280;69097;52.132;5.422;2023-06-26T03:28:34;101348.69;;;21.35;67.41
79617;BME280;69097;52.132;5.422;2023-06-26T03:31:00;101355.19;;;21.35;68.10
79617;BME280;69097;52.132;5.422;2023-06-26T03:33:28;101354.38;;;21.35;67.69
79617;BME280;69097;52.132;5.422;2023-06-26T03:35:54;101346.31;;;21.33;68.09
79617;BME280;69097;52.132;5.422;2023-06-26T03:38:22;101350.75;;;21.34;68.45
79617;BME280;69097;52.132;5.422;2023-06-26T03:40:48;101348.69;;;21.35;67.86
79617;BME280;69097;52.132;5.422;2023-06-26T03:43:15;101350.69;;;21.29;68.13
79617;BME280;69097;52.132;5.422;2023-06-26T03:45:43;101359.16;;;21.23;68.06
79617;BME280;69097;52.132;5.422;2023-06-26T03:48:09;101370.56;;;21.23;68.37
79617;BME280;69097;52.132;5.422;2023-06-26T03:50:36;101367.22;;;21.25;69.00
79617;BME280;69097;52.132;5.422;2023-06-26T03:53:02;101373.72;;;21.25;69.06
79617;BME280;69097;52.132;5.422;2023-06-26T03:55:29;101375.28;;;21.26;68.62
79617;BME280;69097;52.132;5.422;2023-06-26T03:57:55;101374.69;;;21.22;67.80
79617;BME280;69097;52.132;5.422;2023-06-26T04:00:22;101377.25;;;21.20;67.52
79617;BME280;69097;52.132;5.422;2023-06-26T04:02:49;101377.16;;;21.15;67.75
79617;BME280;69097;52.132;5.422;2023-06-26T04:05:17;101385.22;;;21.16;67.81
79617;BME280;69097;52.132;5.422;2023-06-26T04:07:44;101398.31;;;21.08;68.05
79617;BME280;69097;52.132;5.422;2023-06-26T04:10:11;101395.47;;;21.08;67.44
79617;BME280;69097;52.132;5.422;2023-06-26T04:12:37;101396.66;;;21.02;67.83
79617;BME280;69097;52.132;5.422;2023-06-26T04:15:04;101404.13;;;20.99;67.60
79617;BME280;69097;52.132;5.422;2023-06-26T04:17:31;101401.44;;;20.96;67.49
79617;BME280;69097;52.132;5.422;2023-06-26T04:19:57;101415.13;;;20.92;67.72
79617;BME280;69097;52.132;5.422;2023-06-26T04:22:24;101416.38;;;20.91;68.16
79617;BME280;69097;52.132;5.422;2023-06-26T04:24:52;101408.13;;;20.93;68.08
79617;BME280;69097;52.132;5.422;2023-06-26T04:27:18;101409.69;;;20.94;68.04
79617;BME280;69097;52.132;5.422;2023-06-26T04:29:45;101413.03;;;20.92;67.96
79617;BME280;69097;52.132;5.422;2023-06-26T04:32:11;101418.47;;;20.90;67.77
79617;BME280;69097;52.132;5.422;2023-06-26T04:34:38;101417.38;;;20.88;67.69
79617;BME280;69097;52.132;5.422;2023-06-26T04:37:07;101415.22;;;20.83;67.75
79617;BME280;69097;52.132;5.422;2023-06-26T04:39:36;101419.34;;;20.82;68.07
79617;BME280;69097;52.132;5.422;2023-06-26T04:42:04;101425.81;;;20.82;67.73
79617;BME280;69097;52.132;5.422;2023-06-26T04:44:31;101423.16;;;20.78;67.66
79617;BME280;69097;52.132;5.422;2023-06-26T04:46:58;101439.38;;;20.72;68.55
79617;BME280;69097;52.132;5.422;2023-06-26T04:49:24;101435.06;;;20.77;68.70
79617;BME280;69097;52.132;5.422;2023-06-26T04:51:51;101436.66;;;20.78;68.10
79617;BME280;69097;52.132;5.422;2023-06-26T04:54:17;101444.72;;;20.79;68.76
79617;BME280;69097;52.132;5.422;2023-06-26T04:56:44;101450.13;;;20.77;67.95
79617;BME280;69097;52.132;5.422;2023-06-26T04:59:13;101462.81;;;20.76;68.54
79617;BME280;69097;52.132;5.422;2023-06-26T05:01:41;101460.72;;;20.77;68.05
79617;BME280;69097;52.132;5.422;2023-06-26T05:04:07;101455.69;;;20.72;68.64
79617;BME280;69097;52.132;5.422;2023-06-26T05:06:34;101458.25;;;20.70;67.88
79617;BME280;69097;52.132;5.422;2023-06-26T05:09:01;101456.69;;;20.69;67.80
79617;BME280;69097;52.132;5.422;2023-06-26T05:11:27;101463.19;;;20.69;67.62
79617;BME280;69097;52.132;5.422;2023-06-26T05:13:54;101460.53;;;20.66;67.42
79617;BME280;69097;52.132;5.422;2023-06-26T05:16:20;101453.91;;;20.60;67.89
79617;BME280;69097;52.132;5.422;2023-06-26T05:18:47;101467.88;;;20.58;67.23
79617;BME280;69097;52.132;5.422;2023-06-26T05:21:13;101473.94;;;20.51;68.09
79617;BME280;69097;52.132;5.422;2023-06-26T05:23:42;101476.63;;;20.54;67.46
79617;BME280;69097;52.132;5.422;2023-06-26T05:26:11;101481.22;;;20.52;69.06
79617;BME280;69097;52.132;5.422;2023-06-26T05:28:37;101488.31;;;20.56;68.10
79617;BME280;69097;52.132;5.422;2023-06-26T05:31:04;101490.78;;;20.63;68.38
79617;BME280;69097;52.132;5.422;2023-06-26T05:33:35;101493.13;;;20.65;69.41
79617;BME280;69097;52.132;5.422;2023-06-26T05:36:04;101496.59;;;20.69;68.77
79617;BME280;69097;52.132;5.422;2023-06-26T05:38:31;101495.31;;;20.70;68.83
79617;BME280;69097;52.132;5.422;2023-06-26T05:40:58;101501.31;;;20.72;68.92
79617;BME280;69097;52.132;5.422;2023-06-26T05:43:24;101498.97;;;20.70;68.48
79617;BME280;69097;52.132;5.422;2023-06-26T05:45:55;101505.84;;;20.64;68.06
79617;BME280;69097;52.132;5.422;2023-06-26T05:48:22;101503.28;;;20.66;68.25
79617;BME280;69097;52.132;5.422;2023-06-26T05:50:49;101509.56;;;20.70;68.51
79617;BME280;69097;52.132;5.422;2023-06-26T05:53:16;101508.50;;;20.67;67.45
79617;BME280;69097;52.132;5.422;2023-06-26T05:55:42;101503.88;;;20.70;67.21
79617;BME280;69097;52.132;5.422;2023-06-26T05:58:10;101513.72;;;20.69;66.96
79617;BME280;69097;52.132;5.422;2023-06-26T06:00:39;101523.56;;;20.68;66.98
79617;BME280;69097;52.132;5.422;2023-06-26T06:03:06;101523.06;;;20.69;66.66
79617;BME280;69097;52.132;5.422;2023-06-26T06:05:33;101532.69;;;20.72;65.92
79617;BME280;69097;52.132;5.422;2023-06-26T06:07:59;101547.13;;;20.68;66.33
79617;BME280;69097;52.132;5.422;2023-06-26T06:10:26;101541.56;;;20.74;65.49
79617;BME280;69097;52.132;5.422;2023-06-26T06:12:52;101546.59;;;20.79;65.04
79617;BME280;69097;52.132;5.422;2023-06-26T06:15:20;101551.63;;;20.84;64.44
79617;BME280;69097;52.132;5.422;2023-06-26T06:17:47;101554.78;;;20.86;64.53
79617;BME280;69097;52.132;5.422;2023-06-26T06:20:13;101560.41;;;20.95;64.56
79617;BME280;69097;52.132;5.422;2023-06-26T06:22:40;101557.50;;;21.04;63.81
79617;BME280;69097;52.132;5.422;2023-06-26T06:25:07;101560.59;;;21.15;64.37
79617;BME280;69097;52.132;5.422;2023-06-26T06:27:33;101570.09;;;21.12;63.91
79617;BME280;69097;52.132;5.422;2023-06-26T06:30:00;101575.44;;;21.19;64.26
79617;BME280;69097;52.132;5.422;2023-06-26T06:32:26;101576.94;;;21.29;63.81
79617;BME280;69097;52.132;5.422;2023-06-26T06:34:53;101578.22;;;21.28;64.33
79617;BME280;69097;52.132;5.422;2023-06-26T06:37:19;101593.78;;;21.27;63.35
79617;BME280;69097;52.132;5.422;2023-06-26T06:39:46;101598.56;;;21.21;63.84
79617;BME280;69097;52.132;5.422;2023-06-26T06:42:12;101609.00;;;21.24;64.26
79617;BME280;69097;52.132;5.422;2023-06-26T06:44:39;101602.25;;;21.36;64.09
79617;BME280;69097;52.132;5.422;2023-06-26T06:47:06;101599.88;;;21.49;63.54
79617;BME280;69097;52.132;5.422;2023-06-26T06:49:32;101605.31;;;21.62;64.23
79617;BME280;69097;52.132;5.422;2023-06-26T06:51:59;101613.72;;;21.65;63.36
79617;BME280;69097;52.132;5.422;2023-06-26T06:54:28;101626.00;;;21.57;63.62
79617;BME280;69097;52.132;5.422;2023-06-26T06:56:54;101616.47;;;21.74;63.64
79617;BME280;69097;52.132;5.422;2023-06-26T06:59:21;101623.28;;;21.91;63.53
79617;BME280;69097;52.132;5.422;2023-06-26T07:01:47;101621.41;;;21.88;62.67
79617;BME280;69097;52.132;5.422;2023-06-26T07:04:14;101613.22;;;21.81;63.30
79617;BME280;69097;52.132;5.422;2023-06-26T07:06:41;101620.63;;;21.88;63.54
79617;BME280;69097;52.132;5.422;2023-06-26T07:09:07;101627.13;;;22.03;62.77
79617;BME280;69097;52.132;5.422;2023-06-26T07:11:34;101622.28;;;22.09;61.91
79617;BME280;69097;52.132;5.422;2023-06-26T07:14:00;101625.91;;;22.24;62.65
79617;BME280;69097;52.132;5.422;2023-06-26T07:16:27;101641.88;;;22.31;60.72
79617;BME280;69097;52.132;5.422;2023-06-26T07:18:53;101642.25;;;22.38;61.23
79617;BME280;69097;52.132;5.422;2023-06-26T07:21:21;101640.19;;;22.53;62.11
79617;BME280;69097;52.132;5.422;2023-06-26T07:23:49;101640.03;;;22.62;61.02
79617;BME280;69097;52.132;5.422;2023-06-26T07:26:16;101658.78;;;22.49;62.23
79617;BME280;69097;52.132;5.422;2023-06-26T07:28:47;101654.19;;;22.22;61.86
79617;BME280;69097;52.132;5.422;2023-06-26T07:31:16;101648.47;;;22.37;62.89
79617;BME280;69097;52.132;5.422;2023-06-26T07:33:43;101654.66;;;22.35;61.04
79617;BME280;69097;52.132;5.422;2023-06-26T07:36:10;101655.59;;;22.27;61.97
79617;BME280;69097;52.132;5.422;2023-06-26T07:38:36;101658.06;;;22.19;61.90
79617;BME280;69097;52.132;5.422;2023-06-26T07:41:03;101660.13;;;22.33;62.82
79617;BME280;69097;52.132;5.422;2023-06-26T07:43:29;101656.22;;;22.51;61.08
79617;BME280;69097;52.132;5.422;2023-06-26T07:45:57;101662.44;;;22.64;61.53
79617;BME280;69097;52.132;5.422;2023-06-26T07:48:25;101664.06;;;22.85;60.20
79617;BME280;69097;52.132;5.422;2023-06-26T07:50:51;101656.91;;;22.95;59.13
79617;BME280;69097;52.132;5.422;2023-06-26T07:53:19;101663.22;;;22.99;59.22
79617;BME280;69097;52.132;5.422;2023-06-26T07:55:46;101666.50;;;23.12;59.93
79617;BME280;69097;52.132;5.422;2023-06-26T07:58:12;101675.22;;;23.23;58.83
79617;BME280;69097;52.132;5.422;2023-06-26T08:00:40;101690.41;;;23.09;59.35
79617;BME280;69097;52.132;5.422;2023-06-26T08:03:07;101684.97;;;23.11;57.97
79617;BME280;69097;52.132;5.422;2023-06-26T08:05:40;101680.09;;;22.97;59.33
79617;BME280;69097;52.132;5.422;2023-06-26T08:08:07;101676.66;;;22.93;58.95
79617;BME280;69097;52.132;5.422;2023-06-26T08:10:33;101685.03;;;22.96;59.70
79617;BME280;69097;52.132;5.422;2023-06-26T08:13:01;101675.22;;;23.23;59.40
79617;BME280;69097;52.132;5.422;2023-06-26T08:15:27;101683.22;;;23.34;57.40
79617;BME280;69097;52.132;5.422;2023-06-26T08:17:54;101677.88;;;23.27;57.60
79617;BME280;69097;52.132;5.422;2023-06-26T08:20:20;101686.63;;;23.17;57.74
79617;BME280;69097;52.132;5.422;2023-06-26T08:22:48;101694.22;;;23.21;58.43
79617;BME280;69097;52.132;5.422;2023-06-26T08:25:17;101691.66;;;23.43;57.22
79617;BME280;69097;52.132;5.422;2023-06-26T08:27:44;101684.31;;;23.22;56.89
79617;BME280;69097;52.132;5.422;2023-06-26T08:30:10;101684.22;;;23.31;57.97
79617;BME280;69097;52.132;5.422;2023-06-26T08:32:37;101683.56;;;23.61;57.68
79617;BME280;69097;52.132;5.422;2023-06-26T08:35:05;101699.44;;;23.62;55.10
79617;BME280;69097;52.132;5.422;2023-06-26T08:37:32;101700.16;;;23.57;54.93
79617;BME280;69097;52.132;5.422;2023-06-26T08:40:00;101705.16;;;23.62;52.41
79617;BME280;69097;52.132;5.422;2023-06-26T08:42:26;101710.59;;;23.60;52.30
79617;BME280;69097;52.132;5.422;2023-06-26T08:44:53;101721.72;;;23.73;52.07
79617;BME280;69097;52.132;5.422;2023-06-26T08:47:27;101711.00;;;23.93;52.72
79617;BME280;69097;52.132;5.422;2023-06-26T08:50:04;101717.16;;;24.06;52.88
79617;BME280;69097;52.132;5.422;2023-06-26T08:53:03;101707.47;;;24.04;53.02
79617;BME280;69097;52.132;5.422;2023-06-26T08:55:31;101723.06;;;23.77;52.07
79617;BME280;69097;52.132;5.422;2023-06-26T08:58:00;101717.41;;;23.83;51.26
79617;BME280;69097;52.132;5.422;2023-06-26T09:00:29;101728.47;;;23.95;50.89
79617;BME280;69097;52.132;5.422;2023-06-26T09:02:56;101733.78;;;24.02;50.14
79617;BME280;69097;52.132;5.422;2023-06-26T09:05:23;101732.06;;;23.90;50.14
79617;BME280;69097;52.132;5.422;2023-06-26T09:07:53;101744.41;;;23.76;50.56
79617;BME280;69097;52.132;5.422;2023-06-26T09:10:24;101740.41;;;23.48;51.04
79617;BME280;69097;52.132;5.422;2023-06-26T09:12:55;101747.31;;;23.56;51.08
79617;BME280;69097;52.132;5.422;2023-06-26T09:15:21;101759.31;;;23.40;51.50
79617;BME280;69097;52.132;5.422;2023-06-26T09:17:48;101772.91;;;23.45;50.84
79617;BME280;69097;52.132;5.422;2023-06-26T09:20:15;101764.03;;;23.83;53.14
79617;BME280;69097;52.132;5.422;2023-06-26T09:22:43;101746.16;;;24.14;50.27
79617;BME280;69097;52.132;5.422;2023-06-26T09:25:13;101754.97;;;24.36;48.86
79617;BME280;69097;52.132;5.422;2023-06-26T09:27:42;101768.75;;;24.58;49.43
79617;BME280;69097;52.132;5.422;2023-06-26T09:30:10;101775.25;;;24.84;49.88
79617;BME280;69097;52.132;5.422;2023-06-26T09:32:36;101779.97;;;24.87;49.08
79617;BME280;69097;52.132;5.422;2023-06-26T09:35:04;101770.97;;;25.05;46.18
79617;BME280;69097;52.132;5.422;2023-06-26T09:37:30;101771.69;;;25.00;47.90
79617;BME280;69097;52.132;5.422;2023-06-26T09:39:57;101773.09;;;25.15;45.75
79617;BME280;69097;52.132;5.422;2023-06-26T09:42:24;101772.81;;;25.08;47.09
79617;BME280;69097;52.132;5.422;2023-06-26T09:44:50;101774.94;;;25.13;45.97
79617;BME280;69097;52.132;5.422;2023-06-26T09:47:20;101773.28;;;25.01;46.61
79617;BME280;69097;52.132;5.422;2023-06-26T09:49:49;101791.09;;;24.74;47.91
79617;BME280;69097;52.132;5.422;2023-06-26T09:52:17;101799.97;;;24.50;49.33
79617;BME280;69097;52.132;5.422;2023-06-26T09:54:45;101796.50;;;24.41;48.92
79617;BME280;69097;52.132;5.422;2023-06-26T09:57:13;101803.63;;;24.51;48.49
79617;BME280;69097;52.132;5.422;2023-06-26T09:59:42;101795.75;;;24.71;47.59
79617;BME280;69097;52.132;5.422;2023-06-26T10:02:09;101803.19;;;24.58;47.47
79617;BME280;69097;52.132;5.422;2023-06-26T10:04:38;101800.84;;;24.87;48.15
79617;BME280;69097;52.132;5.422;2023-06-26T10:07:06;101811.81;;;24.89;47.61
79617;BME280;69097;52.132;5.422;2023-06-26T10:09:34;101825.78;;;25.07;47.52
79617;BME280;69097;52.132;5.422;2023-06-26T10:12:11;101817.75;;;25.11;47.71
79617;BME280;69097;52.132;5.422;2023-06-26T10:14:41;101811.19;;;25.10;45.64
79617;BME280;69097;52.132;5.422;2023-06-26T10:17:16;101815.25;;;24.93;44.96
79617;BME280;69097;52.132;5.422;2023-06-26T10:19:46;101828.13;;;25.03;46.55
79617;BME280;69097;52.132;5.422;2023-06-26T10:22:17;101829.84;;;25.26;45.39
79617;BME280;69097;52.132;5.422;2023-06-26T10:24:45;101818.38;;;25.26;44.69
79617;BME280;69097;52.132;5.422;2023-06-26T10:27:20;101816.44;;;25.48;43.62
79617;BME280;69097;52.132;5.422;2023-06-26T10:29:50;101830.59;;;25.52;43.35
79617;BME280;69097;52.132;5.422;2023-06-26T10:32:20;101830.81;;;25.48;42.56
79617;BME280;69097;52.132;5.422;2023-06-26T10:34:47;101830.78;;;25.43;43.19
79617;BME280;69097;52.132;5.422;2023-06-26T10:37:14;101839.94;;;25.47;42.95
79617;BME280;69097;52.132;5.422;2023-06-26T10:39:50;101837.47;;;25.71;41.65
79617;BME280;69097;52.132;5.422;2023-06-26T10:42:18;101845.28;;;25.65;41.33
79617;BME280;69097;52.132;5.422;2023-06-26T10:44:47;101834.59;;;25.71;42.07
79617;BME280;69097;52.132;5.422;2023-06-26T10:47:32;101832.47;;;25.66;41.07
79617;BME280;69097;52.132;5.422;2023-06-26T10:50:28;101843.63;;;25.53;41.35
79617;BME280;69097;52.132;5.422;2023-06-26T10:55:57;101842.75;;;25.84;39.98
79617;BME280;69097;52.132;5.422;2023-06-26T10:58:42;101843.44;;;25.68;41.54
79617;BME280;69097;52.132;5.422;2023-06-26T11:01:20;101850.91;;;25.96;42.69
79617;BME280;69097;52.132;5.422;2023-06-26T11:06:24;101853.97;;;26.40;41.41
79617;BME280;69097;52.132;5.422;2023-06-26T11:14:26;101865.31;;;26.77;38.96
79617;BME280;69097;52.132;5.422;2023-06-26T11:16:55;101859.53;;;26.66;38.63
79617;BME280;69097;52.132;5.422;2023-06-26T11:19:25;101869.53;;;26.82;41.89
79617;BME280;69097;52.132;5.422;2023-06-26T11:21:58;101879.72;;;27.05;40.75
79617;BME280;69097;52.132;5.422;2023-06-26T11:24:26;101880.25;;;27.20;39.45
79617;BME280;69097;52.132;5.422;2023-06-26T11:26:52;101880.28;;;27.09;40.39
79617;BME280;69097;52.132;5.422;2023-06-26T11:29:19;101901.75;;;26.97;39.92
79617;BME280;69097;52.132;5.422;2023-06-26T11:31:45;101888.00;;;26.58;39.33
79617;BME280;69097;52.132;5.422;2023-06-26T11:34:13;101890.09;;;26.47;39.06
79617;BME280;69097;52.132;5.422;2023-06-26T11:36:41;101892.19;;;26.46;38.86
79617;BME280;69097;52.132;5.422;2023-06-26T11:39:09;101890.47;;;26.07;40.55
79617;BME280;69097;52.132;5.422;2023-06-26T11:41:37;101895.34;;;25.95;41.03
79617;BME280;69097;52.132;5.422;2023-06-26T11:44:08;101889.53;;;25.79;41.01
79617;BME280;69097;52.132;5.422;2023-06-26T11:46:36;101909.28;;;25.66;41.29
79617;BME280;69097;52.132;5.422;2023-06-26T11:49:04;101913.47;;;25.65;40.89
79617;BME280;69097;52.132;5.422;2023-06-26T11:51:31;101916.16;;;25.74;40.92
79617;BME280;69097;52.132;5.422;2023-06-26T11:54:00;101913.50;;;25.70;40.10
79617;BME280;69097;52.132;5.422;2023-06-26T11:56:29;101926.81;;;25.62;40.67
79617;BME280;69097;52.132;5.422;2023-06-26T11:59:03;101931.56;;;25.76;39.58
79617;BME280;69097;52.132;5.422;2023-06-26T12:04:03;101927.91;;;25.70;41.21
79617;BME280;69097;52.132;5.422;2023-06-26T12:06:32;101931.50;;;26.02;40.40
79617;BME280;69097;52.132;5.422;2023-06-26T12:09:10;101923.78;;;26.24;38.47
79617;BME280;69097;52.132;5.422;2023-06-26T12:11:42;101934.00;;;26.31;37.89
79617;BME280;69097;52.132;5.422;2023-06-26T12:14:10;101936.38;;;26.38;37.65
79617;BME280;69097;52.132;5.422;2023-06-26T12:16:38;101940.28;;;26.29;38.19
79617;BME280;69097;52.132;5.422;2023-06-26T12:19:07;101949.91;;;26.26;38.98
79617;BME280;69097;52.132;5.422;2023-06-26T12:24:04;101962.63;;;26.03;40.44
79617;BME280;69097;52.132;5.422;2023-06-26T12:26:31;101943.31;;;26.09;40.41
79617;BME280;69097;52.132;5.422;2023-06-26T12:29:07;101946.78;;;26.24;40.59
79617;BME280;69097;52.132;5.422;2023-06-26T12:31:35;101945.03;;;26.43;39.00
79617;BME280;69097;52.132;5.422;2023-06-26T12:34:09;101945.25;;;26.40;38.23
79617;BME280;69097;52.132;5.422;2023-06-26T12:36:41;101941.31;;;26.32;38.28
79617;BME280;69097;52.132;5.422;2023-06-26T12:39:11;101955.66;;;26.21;38.44
79617;BME280;69097;52.132;5.422;2023-06-26T12:42:01;101952.31;;;25.86;38.48
79617;BME280;69097;52.132;5.422;2023-06-26T12:44:32;101960.78;;;25.69;40.51
79617;BME280;69097;52.132;5.422;2023-06-26T12:47:00;101959.22;;;25.68;38.65
79617;BME280;69097;52.132;5.422;2023-06-26T12:49:40;101964.47;;;25.70;41.51
79617;BME280;69097;52.132;5.422;2023-06-26T12:52:13;101962.84;;;25.63;41.16
79617;BME280;69097;52.132;5.422;2023-06-26T12:54:41;101963.59;;;25.58;39.72
79617;BME280;69097;52.132;5.422;2023-06-26T12:57:09;101967.84;;;25.68;39.12
79617;BME280;69097;52.132;5.422;2023-06-26T12:59:37;101973.41;;;25.77;38.76
79617;BME280;69097;52.132;5.422;2023-06-26T13:02:04;101978.03;;;25.69;40.66
79617;BME280;69097;52.132;5.422;2023-06-26T13:04:32;101974.94;;;25.73;40.99
79617;BME280;69097;52.132;5.422;2023-06-26T13:06:59;101969.56;;;25.91;40.96
79617;BME280;69097;52.132;5.422;2023-06-26T13:09:26;101968.19;;;26.12;39.49
79617;BME280;69097;52.132;5.422;2023-06-26T13:11:52;101967.66;;;26.14;40.41
79617;BME280;69097;52.132;5.422;2023-06-26T13:14:19;101976.81;;;26.12;38.76